Time,TemperatureF,DewpointF,PressureIn,WindDirection,WindDirectionDegrees,WindSpeedMPH,WindSpeedGustMPH,Humidity,HourlyPrecipIn,Conditions,Clouds,dailyrainin,SolarRadiationWatts/m^2,SoftwareType,DateUTC
2013-06-18 00:02:00,52.0,49.0,-100.00,SW,231,7.0,12.0,90,0.00,,,-99.99,0.000000,,2013-06-18 07:02:00,
2013-06-18 00:12:00,52.0,49.0,-100.00,SW,231,7.0,12.0,90,0.00,,,-99.99,0.000000,,2013-06-18 07:12:00,
2013-06-18 00:33:00,51.0,48.0,-100.00,SW,223,7.0,13.0,90,0.00,,,0.01,0.000000,,2013-06-18 07:33:00,
2013-06-18 00:43:00,51.0,48.0,-100.00,SW,223,7.0,13.0,90,0.00,,,0.01,0.000000,,2013-06-18 07:43:00,
2013-06-18 00:53:00,51.0,48.0,-100.00,SW,223,7.0,13.0,90,0.00,,,0.01,0.000000,,2013-06-18 07:53:00,
2013-06-18 01:01:00,51.0,48.0,-100.00,SW,223,7.0,13.0,90,0.00,,,0.01,0.000000,,2013-06-18 08:01:00,
2013-06-18 01:11:00,51.0,48.0,-100.00,SW,223,7.0,13.0,90,0.00,,,0.01,0.000000,,2013-06-18 08:11:00,
2013-06-18 01:43:00,51.0,47.0,-100.00,WSW,238,9.0,14.0,86,0.00,,,0.01,0.000000,,2013-06-18 08:43:00,
2013-06-18 01:52:00,51.0,47.0,-100.00,WSW,238,9.0,14.0,86,0.00,,,0.01,0.000000,,2013-06-18 08:52:00,
2013-06-18 02:01:00,51.0,47.0,-100.00,WSW,238,9.0,14.0,86,0.00,,,0.01,0.000000,,2013-06-18 09:01:00,
2013-06-18 02:11:00,51.0,47.0,-100.00,WSW,238,9.0,14.0,86,0.00,,,0.01,0.000000,,2013-06-18 09:11:00,
2013-06-18 02:43:00,51.0,46.0,-100.00,SW,236,9.0,16.0,84,0.00,,,0.01,0.000000,,2013-06-18 09:43:00,
2013-06-18 02:53:00,51.0,46.0,-100.00,SW,236,9.0,16.0,84,0.00,,,0.01,0.000000,,2013-06-18 09:53:00,
2013-06-18 03:01:00,51.0,46.0,-100.00,SW,236,9.0,16.0,84,0.00,,,0.01,0.000000,,2013-06-18 10:01:00,
2013-06-18 03:11:00,51.0,46.0,-100.00,SW,236,9.0,16.0,84,0.00,,,0.01,0.000000,,2013-06-18 10:11:00,
2013-06-18 03:33:00,51.0,45.0,-100.00,SW,228,6.0,15.0,81,0.00,,,0.01,0.000000,,2013-06-18 10:33:00,
2013-06-18 03:43:00,51.0,45.0,-100.00,SW,228,6.0,15.0,81,0.00,,,0.01,0.000000,,2013-06-18 10:43:00,
2013-06-18 03:53:00,51.0,45.0,-100.00,SW,228,6.0,15.0,81,0.00,,,0.01,0.000000,,2013-06-18 10:53:00,
2013-06-18 04:02:00,51.0,45.0,-100.00,SW,228,6.0,15.0,81,0.00,,,0.01,0.000000,,2013-06-18 11:02:00,
2013-06-18 04:11:00,51.0,45.0,-100.00,SW,228,6.0,15.0,81,0.00,,,0.01,0.000000,,2013-06-18 11:11:00,
2013-06-18 04:43:00,50.0,44.0,-100.00,SSW,203,6.0,9.0,81,0.00,,,0.01,0.000000,,2013-06-18 11:43:00,
2013-06-18 04:52:00,50.0,44.0,-100.00,SSW,203,6.0,9.0,81,0.00,,,0.01,0.000000,,2013-06-18 11:52:00,
2013-06-18 05:01:00,50.0,44.0,-100.00,SSW,203,6.0,9.0,81,0.00,,,0.01,0.000000,,2013-06-18 12:01:00,
2013-06-18 05:11:00,50.0,44.0,-100.00,SSW,203,6.0,9.0,81,0.00,,,0.01,0.000000,,2013-06-18 12:11:00,
2013-06-18 05:43:00,49.0,45.0,-100.00,South,184,5.0,8.0,86,0.00,,,-99.99,0.000000,,2013-06-18 12:43:00,
2013-06-18 05:52:00,49.0,45.0,-100.00,South,184,5.0,8.0,86,0.00,,,-99.99,0.000000,,2013-06-18 12:52:00,
2013-06-18 06:01:00,49.0,45.0,-100.00,South,184,5.0,8.0,86,0.00,,,-99.99,0.000000,,2013-06-18 13:01:00,
2013-06-18 06:11:00,49.0,45.0,-100.00,South,184,5.0,8.0,86,0.00,,,-99.99,0.000000,,2013-06-18 13:11:00,
2013-06-18 06:43:00,50.0,46.0,-100.00,SSE,159,10.0,16.0,85,0.00,,,0.01,12.000000,,2013-06-18 13:43:00,
2013-06-18 06:53:00,50.0,46.0,-100.00,SSE,159,10.0,16.0,85,0.00,,,0.01,12.000000,,2013-06-18 13:53:00,
2013-06-18 07:02:00,50.0,46.0,-100.00,SSE,159,10.0,16.0,85,0.00,,,0.01,12.000000,,2013-06-18 14:02:00,
2013-06-18 07:11:00,50.0,46.0,-100.00,SSE,159,10.0,16.0,85,0.00,,,0.01,12.000000,,2013-06-18 14:11:00,
2013-06-18 08:02:00,53.0,46.0,-100.00,South,186,8.0,13.0,76,0.00,,,0.01,187.000000,,2013-06-18 15:02:00,
2013-06-18 08:11:00,53.0,46.0,-100.00,South,186,8.0,13.0,76,0.00,,,0.01,187.000000,,2013-06-18 15:11:00,
2013-06-18 08:33:00,53.0,45.0,-100.00,SSW,192,7.0,14.0,75,0.00,,,0.01,126.000000,,2013-06-18 15:33:00,
2013-06-18 08:43:00,53.0,45.0,-100.00,SSW,192,7.0,14.0,75,0.00,,,0.01,126.000000,,2013-06-18 15:43:00,
2013-06-18 08:53:00,53.0,45.0,-100.00,SSW,192,7.0,14.0,75,0.00,,,0.01,126.000000,,2013-06-18 15:53:00,
2013-06-18 09:01:00,53.0,45.0,-100.00,SSW,192,7.0,14.0,75,0.00,,,0.01,126.000000,,2013-06-18 16:01:00,
2013-06-18 09:11:00,53.0,45.0,-100.00,SSW,192,7.0,14.0,75,0.00,,,0.01,126.000000,,2013-06-18 16:11:00,
2013-06-18 09:33:00,56.0,46.0,-100.00,SSW,208,7.0,16.0,69,0.00,,,0.01,318.000000,,2013-06-18 16:33:00,
2013-06-18 09:43:00,56.0,46.0,-100.00,SSW,208,7.0,16.0,69,0.00,,,0.01,318.000000,,2013-06-18 16:43:00,
2013-06-18 09:53:00,56.0,46.0,-100.00,SSW,208,7.0,16.0,69,0.00,,,0.01,318.000000,,2013-06-18 16:53:00,
2013-06-18 10:01:00,56.0,46.0,-100.00,SSW,208,7.0,16.0,69,0.00,,,0.01,318.000000,,2013-06-18 17:01:00,
2013-06-18 10:11:00,56.0,46.0,-100.00,SSW,208,7.0,16.0,69,0.00,,,0.01,318.000000,,2013-06-18 17:11:00,
2013-06-18 10:34:00,56.0,49.0,-100.00,South,170,10.0,17.0,76,0.00,,,0.01,384.000000,,2013-06-18 17:34:00,
2013-06-18 10:43:00,56.0,49.0,-100.00,South,170,10.0,17.0,76,0.00,,,0.01,384.000000,,2013-06-18 17:43:00,
2013-06-18 10:53:00,56.0,49.0,-100.00,South,170,10.0,17.0,76,0.00,,,0.01,384.000000,,2013-06-18 17:53:00,
2013-06-18 11:01:00,56.0,49.0,-100.00,South,170,10.0,17.0,76,0.00,,,0.01,384.000000,,2013-06-18 18:01:00,
2013-06-18 11:11:00,56.0,49.0,-100.00,South,170,10.0,17.0,76,0.00,,,0.01,384.000000,,2013-06-18 18:11:00,
2013-06-18 11:33:00,58.0,47.0,-100.00,South,187,9.0,16.0,66,0.00,,,0.01,735.000000,,2013-06-18 18:33:00,
2013-06-18 11:42:00,58.0,47.0,-100.00,South,187,9.0,16.0,66,0.00,,,0.01,735.000000,,2013-06-18 18:42:00,
2013-06-18 11:53:00,58.0,47.0,-100.00,South,187,9.0,16.0,66,0.00,,,0.01,735.000000,,2013-06-18 18:53:00,
2013-06-18 12:01:00,58.0,47.0,-100.00,South,187,9.0,16.0,66,0.00,,,0.01,735.000000,,2013-06-18 19:01:00,
2013-06-18 12:11:00,58.0,47.0,-100.00,South,187,9.0,16.0,66,0.00,,,0.01,735.000000,,2013-06-18 19:11:00,
2013-06-18 12:33:00,57.0,45.0,-100.00,WSW,243,10.0,19.0,65,0.00,,,0.01,566.000000,,2013-06-18 19:33:00,
2013-06-18 12:43:00,57.0,45.0,-100.00,WSW,243,10.0,19.0,65,0.00,,,0.01,566.000000,,2013-06-18 19:43:00,
2013-06-18 12:52:00,57.0,45.0,-100.00,WSW,243,10.0,19.0,65,0.00,,,0.01,566.000000,,2013-06-18 19:52:00,
2013-06-18 13:01:00,57.0,45.0,-100.00,WSW,243,10.0,19.0,65,0.00,,,0.01,566.000000,,2013-06-18 20:01:00,
2013-06-18 13:11:00,57.0,45.0,-100.00,WSW,243,10.0,19.0,65,0.00,,,0.01,566.000000,,2013-06-18 20:11:00,
2013-06-18 13:33:00,59.0,48.0,-100.00,WSW,257,15.0,21.0,67,0.00,,,0.01,989.000000,,2013-06-18 20:33:00,
2013-06-18 13:43:00,59.0,48.0,-100.00,WSW,257,15.0,21.0,67,0.00,,,0.01,989.000000,,2013-06-18 20:43:00,
2013-06-18 13:52:00,59.0,48.0,-100.00,WSW,257,15.0,21.0,67,0.00,,,0.01,989.000000,,2013-06-18 20:52:00,
2013-06-18 14:01:00,59.0,48.0,-100.00,WSW,257,15.0,21.0,67,0.00,,,0.01,989.000000,,2013-06-18 21:01:00,
2013-06-18 14:11:00,59.0,48.0,-100.00,WSW,257,15.0,21.0,67,0.00,,,0.01,989.000000,,2013-06-18 21:11:00,
2013-06-18 14:33:00,59.0,48.0,-100.00,WSW,249,15.0,25.0,66,0.00,,,0.01,1187.000000,,2013-06-18 21:33:00,
2013-06-18 14:43:00,59.0,48.0,-100.00,WSW,249,15.0,25.0,66,0.00,,,0.01,1187.000000,,2013-06-18 21:43:00,
2013-06-18 14:52:00,59.0,48.0,-100.00,WSW,249,15.0,25.0,66,0.00,,,0.01,1187.000000,,2013-06-18 21:52:00,
2013-06-18 15:01:00,59.0,48.0,-100.00,WSW,249,15.0,25.0,66,0.00,,,0.01,1187.000000,,2013-06-18 22:01:00,
2013-06-18 15:11:00,59.0,48.0,-100.00,WSW,249,15.0,25.0,66,0.00,,,0.01,1187.000000,,2013-06-18 22:11:00,
2013-06-18 15:34:00,58.0,50.0,-100.00,WSW,239,12.0,24.0,75,0.00,,,0.01,751.000000,,2013-06-18 22:34:00,
2013-06-18 15:43:00,58.0,50.0,-100.00,WSW,239,12.0,24.0,75,0.00,,,0.01,751.000000,,2013-06-18 22:43:00,
2013-06-18 15:53:00,58.0,50.0,-100.00,WSW,239,12.0,24.0,75,0.00,,,0.01,751.000000,,2013-06-18 22:53:00,
2013-06-18 16:01:00,58.0,50.0,-100.00,WSW,239,12.0,24.0,75,0.00,,,0.01,751.000000,,2013-06-18 23:01:00,
2013-06-18 16:11:00,58.0,50.0,-100.00,WSW,239,12.0,24.0,75,0.00,,,0.01,751.000000,,2013-06-18 23:11:00,
2013-06-18 16:48:00,56.0,47.0,-100.00,WSW,254,14.0,22.0,71,0.00,,,0.01,561.000000,,2013-06-18 23:48:00,
2013-06-18 16:53:00,56.0,47.0,-100.00,WSW,254,14.0,22.0,71,0.00,,,0.01,561.000000,,2013-06-18 23:53:00,
2013-06-18 17:01:00,56.0,47.0,-100.00,WSW,254,14.0,22.0,71,0.00,,,0.01,561.000000,,2013-06-19 00:01:00,
2013-06-18 17:11:00,56.0,47.0,-100.00,WSW,254,14.0,22.0,71,0.00,,,0.01,561.000000,,2013-06-19 00:11:00,
2013-06-18 17:43:00,57.0,47.0,-100.00,SW,233,11.0,21.0,68,0.00,,,0.01,587.000000,,2013-06-19 00:43:00,
2013-06-18 17:53:00,57.0,47.0,-100.00,SW,233,11.0,21.0,68,0.00,,,0.01,587.000000,,2013-06-19 00:53:00,
2013-06-18 18:01:00,57.0,47.0,-100.00,SW,233,11.0,21.0,68,0.00,,,0.01,587.000000,,2013-06-19 01:01:00,
2013-06-18 18:11:00,57.0,47.0,-100.00,SW,233,11.0,21.0,68,0.00,,,0.01,587.000000,,2013-06-19 01:11:00,
2013-06-18 18:43:00,54.0,46.0,-100.00,WSW,250,12.0,23.0,74,0.00,,,0.01,280.000000,,2013-06-19 01:43:00,
2013-06-18 18:53:00,54.0,46.0,-100.00,WSW,250,12.0,23.0,74,0.00,,,0.01,280.000000,,2013-06-19 01:53:00,
2013-06-18 19:01:00,54.0,46.0,-100.00,WSW,250,12.0,23.0,74,0.00,,,0.01,280.000000,,2013-06-19 02:01:00,
2013-06-18 19:11:00,54.0,46.0,-100.00,WSW,250,12.0,23.0,74,0.00,,,0.01,280.000000,,2013-06-19 02:11:00,
2013-06-18 19:32:00,53.0,48.0,-100.00,SW,219,7.0,15.0,83,0.00,,,0.01,154.000000,,2013-06-19 02:32:00,
2013-06-18 19:42:00,53.0,48.0,-100.00,SW,219,7.0,15.0,83,0.00,,,0.01,154.000000,,2013-06-19 02:42:00,
2013-06-18 19:52:00,53.0,48.0,-100.00,SW,219,7.0,15.0,83,0.00,,,0.01,154.000000,,2013-06-19 02:52:00,
2013-06-18 20:01:00,53.0,48.0,-100.00,SW,219,7.0,15.0,83,0.00,,,0.01,154.000000,,2013-06-19 03:01:00,
2013-06-18 20:11:00,53.0,48.0,-100.00,SW,219,7.0,15.0,83,0.00,,,0.01,154.000000,,2013-06-19 03:11:00,
2013-06-18 20:33:00,52.0,49.0,-100.00,South,190,5.0,12.0,88,0.01,,,0.02,97.000000,,2013-06-19 03:33:00,
2013-06-18 20:43:00,52.0,49.0,-100.00,South,190,5.0,12.0,88,0.01,,,0.02,97.000000,,2013-06-19 03:43:00,
2013-06-18 20:52:00,52.0,49.0,-100.00,South,190,5.0,12.0,88,0.01,,,0.02,97.000000,,2013-06-19 03:52:00,
2013-06-18 21:01:00,52.0,49.0,-100.00,South,190,5.0,12.0,88,0.01,,,0.02,97.000000,,2013-06-19 04:01:00,
2013-06-18 21:11:00,52.0,49.0,-100.00,South,190,5.0,12.0,88,0.01,,,0.02,97.000000,,2013-06-19 04:11:00,
2013-06-18 21:33:00,51.0,48.0,-100.00,SW,223,8.0,11.0,90,0.00,,,0.02,11.000000,,2013-06-19 04:33:00,
2013-06-18 21:43:00,51.0,48.0,-100.00,SW,223,8.0,11.0,90,0.00,,,0.02,11.000000,,2013-06-19 04:43:00,
2013-06-18 21:53:00,51.0,48.0,-100.00,SW,223,8.0,11.0,90,0.00,,,0.02,11.000000,,2013-06-19 04:53:00,
2013-06-18 22:01:00,51.0,48.0,-100.00,SW,223,8.0,11.0,90,0.00,,,0.02,11.000000,,2013-06-19 05:01:00,
2013-06-18 22:11:00,51.0,48.0,-100.00,SW,223,8.0,11.0,90,0.00,,,0.02,11.000000,,2013-06-19 05:11:00,
2013-06-18 22:32:00,50.0,47.0,-100.00,WSW,243,9.0,13.0,91,0.00,,,0.01,0.000000,,2013-06-19 05:32:00,
2013-06-18 22:43:00,50.0,47.0,-100.00,WSW,243,9.0,13.0,91,0.00,,,0.01,0.000000,,2013-06-19 05:43:00,
2013-06-18 22:52:00,50.0,47.0,-100.00,WSW,243,9.0,13.0,91,0.00,,,0.01,0.000000,,2013-06-19 05:52:00,
2013-06-18 23:01:00,50.0,47.0,-100.00,WSW,243,9.0,13.0,91,0.00,,,0.01,0.000000,,2013-06-19 06:01:00,
2013-06-18 23:11:00,50.0,47.0,-100.00,WSW,243,9.0,13.0,91,0.00,,,0.01,0.000000,,2013-06-19 06:11:00,
2013-06-18 23:43:00,49.0,46.0,-100.00,SSW,192,6.0,15.0,89,0.08,,,0.09,0.000000,,2013-06-19 06:43:00,
2013-06-18 23:52:00,49.0,46.0,-100.00,SSW,192,6.0,15.0,89,0.08,,,0.09,0.000000,,2013-06-19 06:52:00,